FIN87J ENBR-EHAM
Flight info
| Callsign | FIN87J |
|---|---|
| Flight time | 1h 14m |
| Altitude | 30000 |
| Route | TUXIL DCT ZOL DCT ATNAK DCT TIPAN DCT WECOW DCT LARDI DCT TOPPA |
| Aircraft | A359/H-SDE2E3GHIJ3J4J5LM1ORWXY/LB1D1 |
Departure
| Time | 2026-05-04 10:36 |
|---|---|
| Airport | Bergen Airport, Flesland (ENBR) |
Arrival
| Time | 2026-05-04 11:50 |
|---|---|
| Airport | Amsterdam Airport Schiphol (EHAM) |
| Time | Latitude | Longitude | Altitude | Speed | Heading |
|---|---|---|---|---|---|
| 2026-05-04 10:21 | 60.28977 | 5.22552 | 157 ft | 0 kts | 144° |
| 2026-05-04 10:27 | 60.28983 | 5.22541 | 157 ft | 2 kts | 121° |
| 2026-05-04 10:28 | 60.28991 | 5.22512 | 157 ft | 2 kts | 102° |
| 2026-05-04 10:28 | 60.28991 | 5.22479 | 157 ft | 2 kts | 80° |
| 2026-05-04 10:28 | 60.28987 | 5.22447 | 157 ft | 2 kts | 66° |
| 2026-05-04 10:28 | 60.28979 | 5.22418 | 157 ft | 2 kts | 54° |
| 2026-05-04 10:29 | 60.28968 | 5.22394 | 157 ft | 2 kts | 38° |
| 2026-05-04 10:29 | 60.28961 | 5.22383 | 157 ft | 1 kts | 6° |
| 2026-05-04 10:29 | 60.28961 | 5.22382 | 157 ft | 0 kts | 3° |
| 2026-05-04 10:30 | 60.28965 | 5.22382 | 157 ft | 2 kts | 4° |
| 2026-05-04 10:30 | 60.28990 | 5.22376 | 157 ft | 5 kts | 352° |
| 2026-05-04 10:30 | 60.29036 | 5.22363 | 158 ft | 8 kts | 352° |
| 2026-05-04 10:30 | 60.29099 | 5.22344 | 158 ft | 10 kts | 351° |
| 2026-05-04 10:31 | 60.29176 | 5.22318 | 159 ft | 12 kts | 350° |
| 2026-05-04 10:31 | 60.29266 | 5.22286 | 160 ft | 14 kts | 348° |
| 2026-05-04 10:32 | 60.29114 | 5.22214 | 158 ft | 29 kts | 170° |
| 2026-05-04 10:33 | 60.28925 | 5.22279 | 157 ft | 28 kts | 170° |
| 2026-05-04 10:33 | 60.28822 | 5.22314 | 156 ft | 18 kts | 170° |
| 2026-05-04 10:33 | 60.28664 | 5.22365 | 155 ft | 28 kts | 170° |
| 2026-05-04 10:33 | 60.28511 | 5.22415 | 153 ft | 22 kts | 171° |
| 2026-05-04 10:34 | 60.28362 | 5.22463 | 152 ft | 22 kts | 171° |
| 2026-05-04 10:34 | 60.28180 | 5.22525 | 150 ft | 30 kts | 170° |
| 2026-05-04 10:34 | 60.28080 | 5.22514 | 149 ft | 10 kts | 223° |
| 2026-05-04 10:34 | 60.28049 | 5.22311 | 146 ft | 21 kts | 263° |
| 2026-05-04 10:35 | 60.28053 | 5.22274 | 146 ft | 0 kts | 300° |
| 2026-05-04 10:35 | 60.28071 | 5.22254 | 147 ft | 10 kts | 334° |
| 2026-05-04 10:35 | 60.28152 | 5.22217 | 148 ft | 17 kts | 351° |
| 2026-05-04 10:35 | 60.28503 | 5.22097 | 156 ft | 89 kts | 351° |
| 2026-05-04 10:36 | 60.29358 | 5.21811 | 161 ft | 157 kts | 350° |
| 2026-05-04 10:36 | 60.30607 | 5.21397 | 375 ft | 201 kts | 349° |
| 2026-05-04 10:36 | 60.32068 | 5.20921 | 952 ft | 226 kts | 348° |
| 2026-05-04 10:36 | 60.33616 | 5.20391 | 2171 ft | 215 kts | 350° |
| 2026-05-04 10:37 | 60.35062 | 5.19927 | 3660 ft | 209 kts | 348° |
| 2026-05-04 10:37 | 60.36547 | 5.19414 | 4394 ft | 228 kts | 348° |
| 2026-05-04 10:37 | 60.38172 | 5.18848 | 5109 ft | 244 kts | 347° |
| 2026-05-04 10:37 | 60.39869 | 5.18269 | 6032 ft | 250 kts | 346° |
| 2026-05-04 10:39 | 60.48620 | 5.09870 | 11368 ft | 233 kts | 277° |
| 2026-05-04 10:39 | 60.48622 | 5.06593 | 12120 ft | 235 kts | 263° |
| 2026-05-04 10:39 | 60.48217 | 5.03360 | 12836 ft | 241 kts | 250° |
| 2026-05-04 10:40 | 60.47304 | 5.00454 | 13526 ft | 251 kts | 232° |
| 2026-05-04 10:40 | 60.45856 | 4.98325 | 14138 ft | 267 kts | 212° |
| 2026-05-04 10:40 | 60.43997 | 4.97470 | 14805 ft | 286 kts | 190° |
| 2026-05-04 10:40 | 60.41981 | 4.97785 | 15467 ft | 293 kts | 184° |
| 2026-05-04 10:41 | 60.39947 | 4.98290 | 16061 ft | 296 kts | 185° |
| 2026-05-04 10:41 | 60.37895 | 4.98780 | 16632 ft | 298 kts | 186° |
| 2026-05-04 10:41 | 60.35831 | 4.99248 | 17181 ft | 299 kts | 187° |
| 2026-05-04 10:41 | 60.33752 | 4.99703 | 17717 ft | 301 kts | 187° |
| 2026-05-04 10:42 | 60.31663 | 5.00148 | 18269 ft | 303 kts | 188° |
| 2026-05-04 10:42 | 60.29556 | 5.00588 | 18681 ft | 306 kts | 188° |
| 2026-05-04 10:42 | 60.27414 | 5.01108 | 19081 ft | 315 kts | 185° |
| 2026-05-04 10:42 | 60.25230 | 5.01902 | 19461 ft | 322 kts | 183° |
| 2026-05-04 10:43 | 60.23015 | 5.02782 | 19863 ft | 326 kts | 182° |
| 2026-05-04 10:44 | 60.06967 | 5.13372 | 22340 ft | 368 kts | 168° |
| 2026-05-04 10:45 | 60.04610 | 5.15406 | 22754 ft | 370 kts | 168° |
| 2026-05-04 10:45 | 60.02237 | 5.17446 | 23107 ft | 373 kts | 168° |
| 2026-05-04 10:45 | 59.99845 | 5.19494 | 23443 ft | 376 kts | 168° |
| 2026-05-04 10:45 | 59.97427 | 5.21559 | 23712 ft | 379 kts | 168° |
| 2026-05-04 10:46 | 59.94993 | 5.23635 | 24003 ft | 381 kts | 168° |
| 2026-05-04 10:46 | 59.92548 | 5.25715 | 24286 ft | 384 kts | 168° |
| 2026-05-04 10:46 | 59.90082 | 5.27809 | 24558 ft | 386 kts | 168° |
| 2026-05-04 10:46 | 59.87615 | 5.29905 | 24953 ft | 385 kts | 168° |
| 2026-05-04 10:47 | 59.85142 | 5.31999 | 25225 ft | 388 kts | 168° |
| 2026-05-04 10:47 | 59.82649 | 5.34101 | 25474 ft | 391 kts | 168° |
| 2026-05-04 10:47 | 59.80145 | 5.35879 | 25690 ft | 384 kts | 178° |
| 2026-05-04 10:47 | 59.77542 | 5.36749 | 25780 ft | 377 kts | 187° |
| 2026-05-04 10:49 | 59.58275 | 5.40366 | 27264 ft | 414 kts | 183° |
| 2026-05-04 10:49 | 59.55407 | 5.41131 | 27519 ft | 417 kts | 183° |
| 2026-05-04 10:50 | 59.52528 | 5.41883 | 27802 ft | 419 kts | 183° |
| 2026-05-04 10:51 | 59.31899 | 5.47811 | 29551 ft | 440 kts | 178° |
| 2026-05-04 10:52 | 59.28886 | 5.48990 | 29811 ft | 443 kts | 178° |
| 2026-05-04 10:52 | 59.23806 | 5.50939 | 29903 ft | 454 kts | 178° |
| 2026-05-04 10:54 | 59.00739 | 5.59259 | 29913 ft | 511 kts | 176° |
| 2026-05-04 10:54 | 58.97213 | 5.60517 | 29904 ft | 519 kts | 176° |
| 2026-05-04 10:56 | 58.71890 | 5.58565 | 29915 ft | 528 kts | 198° |
| 2026-05-04 10:56 | 58.68272 | 5.57214 | 29919 ft | 529 kts | 198° |
| 2026-05-04 10:57 | 58.61039 | 5.54566 | 29918 ft | 530 kts | 198° |
| 2026-05-04 10:57 | 58.53785 | 5.51981 | 29920 ft | 530 kts | 197° |
| 2026-05-04 10:58 | 58.46529 | 5.49429 | 29926 ft | 530 kts | 197° |
| 2026-05-04 10:58 | 58.39273 | 5.46887 | 29929 ft | 530 kts | 197° |
| 2026-05-04 10:59 | 58.32020 | 5.44354 | 29933 ft | 530 kts | 197° |
| 2026-05-04 10:59 | 58.24815 | 5.41847 | 29939 ft | 530 kts | 197° |
| 2026-05-04 11:00 | 58.17554 | 5.39331 | 29939 ft | 530 kts | 197° |
| 2026-05-04 11:02 | 57.88486 | 5.29363 | 29954 ft | 531 kts | 196° |
| 2026-05-04 11:05 | 57.33845 | 5.11061 | 29980 ft | 533 kts | 194° |
| 2026-05-04 11:06 | 57.26542 | 5.08657 | 29962 ft | 533 kts | 194° |
| 2026-05-04 11:06 | 57.19295 | 5.06281 | 29985 ft | 533 kts | 194° |
| 2026-05-04 11:10 | 56.67823 | 4.91508 | 30008 ft | 536 kts | 191° |
| 2026-05-04 11:12 | 56.38265 | 4.83822 | 30015 ft | 537 kts | 190° |
| 2026-05-04 11:12 | 56.30869 | 4.81920 | 30018 ft | 537 kts | 190° |
| 2026-05-04 11:13 | 56.23470 | 4.80025 | 30026 ft | 537 kts | 190° |
| 2026-05-04 11:13 | 56.16116 | 4.78146 | 30040 ft | 537 kts | 189° |
| 2026-05-04 11:14 | 56.08670 | 4.76254 | 30029 ft | 537 kts | 189° |
| 2026-05-04 11:16 | 55.79114 | 4.68812 | 30031 ft | 537 kts | 189° |
| 2026-05-04 11:16 | 55.71712 | 4.66966 | 30038 ft | 537 kts | 189° |
| 2026-05-04 11:17 | 55.64312 | 4.65127 | 30034 ft | 536 kts | 189° |
| 2026-05-04 11:19 | 55.34801 | 4.57865 | 30030 ft | 534 kts | 189° |
| 2026-05-04 11:19 | 55.27495 | 4.56083 | 30032 ft | 533 kts | 189° |
| 2026-05-04 11:20 | 55.20140 | 4.54296 | 30032 ft | 533 kts | 189° |
| 2026-05-04 11:20 | 55.12805 | 4.52521 | 30030 ft | 529 kts | 189° |
| 2026-05-04 11:22 | 54.87958 | 4.46520 | 30031 ft | 505 kts | 188° |
| 2026-05-04 11:22 | 54.84480 | 4.45692 | 30031 ft | 503 kts | 188° |
| 2026-05-04 11:23 | 54.77614 | 4.44060 | 30031 ft | 500 kts | 188° |
| 2026-05-04 11:24 | 54.57386 | 4.37479 | 30037 ft | 488 kts | 206° |
| 2026-05-04 11:25 | 54.54333 | 4.34954 | 30036 ft | 486 kts | 208° |
| 2026-05-04 11:25 | 54.48352 | 4.29565 | 30037 ft | 484 kts | 209° |
| 2026-05-04 11:27 | 54.21766 | 4.05487 | 27595 ft | 480 kts | 208° |
| 2026-05-04 11:28 | 54.18848 | 4.02891 | 27033 ft | 476 kts | 209° |
| 2026-05-04 11:28 | 54.15931 | 4.00296 | 26579 ft | 470 kts | 209° |
| 2026-05-04 11:28 | 54.13061 | 3.97746 | 26204 ft | 461 kts | 209° |
| 2026-05-04 11:28 | 54.10224 | 3.95226 | 25624 ft | 459 kts | 209° |
| 2026-05-04 11:29 | 54.07407 | 3.92724 | 25057 ft | 455 kts | 209° |
| 2026-05-04 11:29 | 54.04604 | 3.90239 | 24519 ft | 452 kts | 209° |
| 2026-05-04 11:29 | 54.01831 | 3.87784 | 23995 ft | 448 kts | 209° |
| 2026-05-04 11:29 | 53.99082 | 3.85355 | 23453 ft | 444 kts | 209° |
| 2026-05-04 11:31 | 53.80082 | 3.68606 | 23042 ft | 438 kts | 210° |
| 2026-05-04 11:33 | 53.60973 | 3.52896 | 22272 ft | 434 kts | 195° |
| 2026-05-04 11:33 | 53.57962 | 3.52361 | 21548 ft | 439 kts | 182° |
| 2026-05-04 11:33 | 53.54913 | 3.52653 | 20931 ft | 438 kts | 178° |
| 2026-05-04 11:34 | 53.51888 | 3.53238 | 20369 ft | 435 kts | 175° |
| 2026-05-04 11:34 | 53.48909 | 3.53956 | 20085 ft | 433 kts | 174° |
| 2026-05-04 11:34 | 53.45927 | 3.54707 | 20031 ft | 433 kts | 175° |
| 2026-05-04 11:34 | 53.42957 | 3.55545 | 20031 ft | 434 kts | 170° |
| 2026-05-04 11:35 | 53.40092 | 3.57204 | 20032 ft | 438 kts | 157° |
| 2026-05-04 11:35 | 53.37534 | 3.59878 | 20034 ft | 442 kts | 147° |
| 2026-05-04 11:35 | 53.35095 | 3.63016 | 20028 ft | 442 kts | 145° |
| 2026-05-04 11:35 | 53.32686 | 3.66216 | 20030 ft | 442 kts | 144° |
| 2026-05-04 11:36 | 53.30286 | 3.69412 | 20025 ft | 441 kts | 144° |
| 2026-05-04 11:36 | 53.27886 | 3.72606 | 20025 ft | 441 kts | 144° |
| 2026-05-04 11:36 | 53.25481 | 3.75801 | 20028 ft | 441 kts | 144° |
| 2026-05-04 11:36 | 53.23083 | 3.78983 | 20025 ft | 441 kts | 144° |
| 2026-05-04 11:37 | 53.20693 | 3.82156 | 19776 ft | 436 kts | 144° |
| 2026-05-04 11:37 | 53.18316 | 3.85312 | 19000 ft | 438 kts | 144° |
| 2026-05-04 11:37 | 53.15928 | 3.88472 | 18392 ft | 438 kts | 144° |
| 2026-05-04 11:37 | 53.13550 | 3.91614 | 17775 ft | 435 kts | 144° |
| 2026-05-04 11:38 | 53.11186 | 3.94732 | 17180 ft | 432 kts | 144° |
| 2026-05-04 11:38 | 53.08843 | 3.97815 | 16612 ft | 428 kts | 144° |
| 2026-05-04 11:38 | 53.06518 | 4.00869 | 16018 ft | 424 kts | 144° |
| 2026-05-04 11:38 | 53.04213 | 4.03893 | 15456 ft | 421 kts | 144° |
| 2026-05-04 11:39 | 53.01927 | 4.06887 | 15093 ft | 417 kts | 144° |
| 2026-05-04 11:39 | 52.99652 | 4.09860 | 14943 ft | 413 kts | 144° |
| 2026-05-04 11:40 | 52.86368 | 4.27147 | 11436 ft | 393 kts | 144° |
| 2026-05-04 11:41 | 52.84231 | 4.29916 | 10890 ft | 389 kts | 144° |
| 2026-05-04 11:41 | 52.82104 | 4.32667 | 10344 ft | 385 kts | 144° |
| 2026-05-04 11:41 | 52.80006 | 4.35377 | 9774 ft | 381 kts | 144° |
| 2026-05-04 11:41 | 52.77922 | 4.38065 | 9166 ft | 378 kts | 143° |
| 2026-05-04 11:42 | 52.75857 | 4.40727 | 8516 ft | 375 kts | 143° |
| 2026-05-04 11:42 | 52.73833 | 4.43330 | 7902 ft | 372 kts | 143° |
| 2026-05-04 11:42 | 52.71800 | 4.45944 | 7286 ft | 369 kts | 143° |
| 2026-05-04 11:42 | 52.69787 | 4.48528 | 6656 ft | 366 kts | 143° |
| 2026-05-04 11:43 | 52.67776 | 4.51106 | 6145 ft | 362 kts | 143° |
| 2026-05-04 11:43 | 52.65827 | 4.53605 | 5910 ft | 346 kts | 143° |
| 2026-05-04 11:43 | 52.63986 | 4.55961 | 5552 ft | 325 kts | 143° |
| 2026-05-04 11:43 | 52.62827 | 4.57444 | 5383 ft | 311 kts | 143° |
| 2026-05-04 11:44 | 52.61165 | 4.59560 | 5090 ft | 292 kts | 143° |
| 2026-05-04 11:44 | 52.59623 | 4.61529 | 4831 ft | 272 kts | 143° |
| 2026-05-04 11:44 | 52.58171 | 4.63382 | 4524 ft | 256 kts | 143° |
| 2026-05-04 11:44 | 52.56805 | 4.65127 | 4222 ft | 241 kts | 143° |
| 2026-05-04 11:45 | 52.55522 | 4.66765 | 3953 ft | 227 kts | 143° |
| 2026-05-04 11:45 | 52.54301 | 4.68320 | 3597 ft | 218 kts | 144° |
| 2026-05-04 11:45 | 52.53133 | 4.69804 | 3334 ft | 204 kts | 143° |
| 2026-05-04 11:45 | 52.52046 | 4.71190 | 3081 ft | 191 kts | 144° |
| 2026-05-04 11:46 | 52.51006 | 4.72510 | 2986 ft | 189 kts | 144° |
| 2026-05-04 11:46 | 52.49964 | 4.73824 | 2987 ft | 189 kts | 144° |
| 2026-05-04 11:46 | 52.48855 | 4.74967 | 2997 ft | 188 kts | 158° |
| 2026-05-04 11:46 | 52.47585 | 4.75358 | 2987 ft | 186 kts | 181° |
| 2026-05-04 11:47 | 52.46314 | 4.75259 | 2994 ft | 177 kts | 187° |
| 2026-05-04 11:47 | 52.45130 | 4.75111 | 2980 ft | 165 kts | 185° |
| 2026-05-04 11:47 | 52.44006 | 4.75014 | 2959 ft | 157 kts | 185° |
| 2026-05-04 11:47 | 52.42923 | 4.74916 | 2570 ft | 157 kts | 184° |
| 2026-05-04 11:48 | 52.41822 | 4.74811 | 2152 ft | 158 kts | 185° |
| 2026-05-04 11:48 | 52.40733 | 4.74707 | 1895 ft | 156 kts | 185° |
| 2026-05-04 11:48 | 52.39654 | 4.74606 | 1531 ft | 155 kts | 185° |
| 2026-05-04 11:48 | 52.38566 | 4.74504 | 1096 ft | 158 kts | 186° |
| 2026-05-04 11:49 | 52.37458 | 4.74400 | 797 ft | 160 kts | 185° |
| 2026-05-04 11:49 | 52.36339 | 4.74299 | 663 ft | 162 kts | 185° |
| 2026-05-04 11:49 | 52.35241 | 4.74201 | 464 ft | 157 kts | 183° |
| 2026-05-04 11:49 | 52.34123 | 4.74095 | 229 ft | 165 kts | 184° |
| 2026-05-04 11:50 | 52.32967 | 4.73985 | 16 ft | 169 kts | 183° |
| 2026-05-04 11:50 | 52.31881 | 4.73889 | 4 ft | 125 kts | 183° |
| 2026-05-04 11:50 | 52.31298 | 4.73851 | 2 ft | 51 kts | 172° |
| 2026-05-04 11:50 | 52.31141 | 4.73951 | 3 ft | 0 kts | 152° |
| 2026-05-04 11:51 | 52.31116 | 4.73982 | 2 ft | 8 kts | 130° |
| 2026-05-04 11:51 | 52.31112 | 4.74061 | 3 ft | 8 kts | 69° |
| 2026-05-04 11:52 | 52.31155 | 4.74113 | 4 ft | 8 kts | 17° |
| 2026-05-04 11:52 | 52.31215 | 4.74121 | 4 ft | 9 kts | 4° |
| 2026-05-04 11:52 | 52.31285 | 4.74127 | 4 ft | 11 kts | 2° |
| 2026-05-04 11:52 | 52.31360 | 4.74156 | 5 ft | 11 kts | 37° |
| 2026-05-04 11:53 | 52.31389 | 4.74280 | 4 ft | 13 kts | 86° |
| 2026-05-04 11:53 | 52.31395 | 4.74434 | 4 ft | 15 kts | 86° |
| 2026-05-04 11:53 | 52.31401 | 4.74610 | 4 ft | 16 kts | 87° |
| 2026-05-04 11:53 | 52.31407 | 4.74805 | 4 ft | 18 kts | 87° |
| 2026-05-04 11:55 | 52.31414 | 4.75061 | 4 ft | 0 kts | 87° |
| 2026-05-04 11:56 | 52.31415 | 4.75079 | 4 ft | 8 kts | 87° |
| 2026-05-04 11:56 | 52.31418 | 4.75215 | 4 ft | 14 kts | 87° |
| 2026-05-04 11:56 | 52.31414 | 4.75380 | 4 ft | 14 kts | 113° |
| 2026-05-04 11:57 | 52.31329 | 4.75446 | 4 ft | 14 kts | 172° |
| 2026-05-04 11:57 | 52.31285 | 4.75534 | 4 ft | 10 kts | 100° |
| 2026-05-04 11:57 | 52.31285 | 4.75575 | 4 ft | 0 kts | 88° |